(°C)
(°C)
-3°
-2°
-2°
-1°
N
N
N
N
N
NNO
NNO
(km/h)
4-8
6-10
7-12
8-16
8-16
7-17
7-16
(mm)
0
0
0
0
0
0
0
(%)
10
0
0
0
0
0
0

Sonnenhöhe

/ 2.6°
sun-icon
UV 2
07:07
19:05
Abnehmender Mond (253°)
21:16
14:22

METAR für 55.27°N 86.11°O (UNEE)

Zeit Bedingungen Temperatur/
Taupunkt
Wind Sichtweite Wetter Wolken Druck Änderung Roh
LIFR 0°C / 0°C 280º 6kt 260m Fog Vertical Visibility of 0ft. 1021 No Significant change. Runway 23: Wet or puddles, 51-100% contamination with 1mm, friction coefficient 0.50. UNEE 270000Z 28003MPS 0250 0150SW FG OVC003 00/M00 Q1021 R23/290150 NOSIG RMK QFE742
LIFR 0°C / 0°C 300º 4kt >10km - Broken Clouds 200ft 1020 No Significant change. Runway 23: Wet or puddles, 51-100% contamination with 1mm, friction coefficient 0.50. UNEE 262330Z 30002MPS 9999 BKN002 OVC023 00/M00 Q1020 R23/290150 NOSIG RMK QBB060 QFE742
IFR 0°C / 0°C 290º 4kt >10km - Broken Clouds 900ft 1020 No Significant change. Runway 23: Wet or puddles, 51-100% contamination with 1mm, friction coefficient 0.50. UNEE 262300Z 29002MPS 9999 BKN009 OVC020 00/M00 Q1020 R23/290150 NOSIG RMK QFE742
MVFR 0°C / 0°C 320º 2kt >10km - Broken Clouds 1300ft 1020 No Significant change. Runway 23: Wet or puddles, 51-100% contamination with 1mm, friction coefficient 0.50. UNEE 262230Z 32001MPS 9999 BKN013 OVC025 00/M00 Q1020 R23/290150 NOSIG RMK QFE742
IFR 0°C / 0°C 350º 4kt >10km - Overcast 700ft 1019 No Significant change. Runway 23: Wet or puddles, 51-100% contamination with 1mm, friction coefficient 0.50. UNEE 262200Z 35002MPS 9999 OVC007 00/M00 Q1019 R23/290150 NOSIG RMK QFE741
IFR 0°C / 0°C 350º 4kt >10km - Overcast 600ft 1019 No Significant change. Runway 23: Wet or puddles, 51-100% contamination with 1mm, friction coefficient 0.50. UNEE 262130Z 35002MPS 9999 OVC006 00/M00 Q1019 R23/290150 NOSIG RMK QFE741
IFR 0°C / 0°C 330º 4kt >10km - Overcast 700ft 1018 No Significant change. Runway 23: Wet or puddles, 51-100% contamination with 1mm, friction coefficient 0.50. UNEE 262100Z 33002MPS 9999 OVC007 00/M00 Q1018 R23/290150 NOSIG RMK QFE741
IFR 0°C / 0°C 20º 4kt >10km - Overcast 500ft 1018 No Significant change. Runway 23: Wet or puddles, 51-100% contamination with 1mm, friction coefficient 0.50. UNEE 262030Z 02002MPS 9999 OVC005 00/M00 Q1018 R23/290150 NOSIG RMK QFE741
LIFR 0°C / 0°C 70º 4kt >10km - Overcast 400ft 1018 No Significant change. Runway 23: Wet or puddles, 51-100% contamination with 1mm, friction coefficient 0.50. UNEE 262000Z 07002MPS 9999 OVC004 M00/M00 Q1018 R23/290150 NOSIG RMK QFE740
LIFR 0°C / 0°C 60º variable 030º to 100º 4kt >10km - Overcast 300ft 1018 No Significant change. Runway 23: Wet or puddles, 51-100% contamination with 1mm, friction coefficient 0.50. UNEE 261930Z 06002MPS 030V100 9999 OVC003 00/M00 Q1018 R23/290150 NOSIG RMK QFE740
LIFR 0°C / 0°C 60º 4kt 1900m. Runway 23: Visual range is 2000m and decreasing. Fog Vertical Visibility of 0ft. 1017 No Significant change. Runway 23: Wet or puddles, 51-100% contamination with 1mm, friction coefficient 0.50. UNEE 261900Z 06002MPS 1900 0250SE R23/P2000D FG OVC004 00/M00 Q1017 R23/290150 NOSIG RMK QFE740
LIFR 0°C / 0°C 50º 4kt 140m. Runway 23: Visual range is 450m. freezing Fog Vertical Visibility of 0ft. 1017 No Significant change. Runway 23: Wet or puddles, 51-100% contamination with 1mm, friction coefficient 0.50. UNEE 261830Z 05002MPS 0150 0100NE R23/0450N FZFG VV001 M00/M00 Q1017 R23/290150 NOSIG RMK QBB040 QFE740
LIFR 0°C / 0°C 60º 4kt 140m. Runway 23: Visual range is 400m. freezing Fog Vertical Visibility of 0ft. 1017 No Significant change. Runway 23: Wet or puddles, 51-100% contamination with 1mm, friction coefficient 0.50. UNEE 261800Z 06002MPS 0150 0100NE R23/0400N FZFG OVC001 M00/M00 Q1017 R23/290150 NOSIG RMK QBB030 QFE740
LIFR 0°C / 0°C 40º 4kt 140m. Runway 23: Visual range is 550m. Light Snow Fog 1.00mm precipitation Vertical Visibility of 0ft. 1017 No Significant change. Runway 23: Wet or puddles, 51-100% contamination with 1mm, friction coefficient 0.50. UNEE 261730Z 04002MPS 0150 R23/0550N -SN FG OVC001 00/M00 Q1017 R23/290150 NOSIG RMK QBB040 QFE740
LIFR 0°C / 0°C 50º 2kt 260m. Runway 23: Visual range is 500m. Fog Vertical Visibility of 0ft. 1017 No Significant change. Runway 23: Wet or puddles, 51-100% contamination with 1mm, friction coefficient 0.50. UNEE 261700Z 05001MPS 0250 0150NE R23/0500N FG VV001 00/00 Q1017 R23/290150 NOSIG RMK QBB040 QFE739
LIFR 0°C / 0°C 340º 4kt 310m. Runway 23: Visual range is 750m. Fog Vertical Visibility of 0ft. 1016 No Significant change. Runway 23: Wet or puddles, 51-100% contamination with 1mm, friction coefficient 0.50. UNEE 261630Z 34002MPS 0300 0250NE R23/0750N FG VV001 00/00 Q1016 R23/290150 NOSIG RMK QBB050 QFE739
LIFR 0°C / 0°C 310º 4kt 260m. Runway 23: Visual range is 1200m and decreasing. Fog Vertical Visibility of 0ft. 1016 No Significant change. Runway 23: Wet or puddles, 51-100% contamination with 1mm, friction coefficient 0.50. UNEE 261600Z 31002MPS 0250 0150SW R23/1200D FG VV002 00/00 Q1016 R23/290150 NOSIG RMK QBB060 QFE739
LIFR 0°C / 0°C 270º 4kt 190m. Runway 23: Visual range is 650m. Fog Vertical Visibility of 0ft. 1016 No Significant change. Runway 23: Wet or puddles, 51-100% contamination with 1mm, friction coefficient 0.50. UNEE 261530Z 27002MPS 0200 R23/0650N FG VV001 00/00 Q1016 R23/290150 NOSIG RMK QBB050 QFE739
LIFR 0°C / 0°C 250º 4kt 140m. Runway 23: Visual range is 500m. Fog Vertical Visibility of 0ft. 1016 No Significant change. Runway 23: Wet or puddles, 51-100% contamination with 1mm, friction coefficient 0.50. UNEE 261500Z 25002MPS 0150 0100SE R23/0500N FG VV001 00/00 Q1016 R23/290150 NOSIG RMK QBB050 QFE739
LIFR 0°C / 0°C 260º 4kt 100m. Runway 23: Visual range is 450m. Fog Vertical Visibility of 0ft. 1016 No Significant change. Runway 23: Wet or puddles, 51-100% contamination with 1mm, friction coefficient 0.50. UNEE 261430Z 26002MPS 0100 R23/0450N FG VV001 00/00 Q1016 R23/290150 NOSIG RMK QBB040 QFE739
LIFR 0°C / 0°C 260º 6kt 140m. Runway 23: Visual range is 600m. Fog Vertical Visibility of 0ft. 1015 No Significant change. Runway 23: Wet or puddles, 51-100% contamination with 1mm, friction coefficient 0.50. UNEE 261400Z 26003MPS 0150 R23/0600N FG VV001 00/00 Q1015 R23/290150 NOSIG RMK QBB050 QFE739
LIFR 0°C / 0°C 260º 6kt 260m. Runway 23: Visual range is 1000m and decreasing. Fog Vertical Visibility of 0ft. 1015 No Significant change. Runway 23: Wet or puddles, 51-100% contamination with 1mm, friction coefficient 0.50. UNEE 261330Z 26003MPS 0250 R23/1000D FG OVC001 00/00 Q1015 R23/290150 NOSIG RMK QBB050 QFE739
LIFR 0°C / 0°C 250º 6kt 1700m Snow 3.00mm precipitation Vertical Visibility of 0ft. 1015 No Significant change. Runway 23: Wet or puddles, 51-100% contamination with 1mm, friction coefficient 0.50. UNEE 261300Z 25003MPS 1700 1000SE SN OVC001 00/M00 Q1015 R23/290150 NOSIG RMK QBB050 QFE738
LIFR 0°C / 0°C 260º 6kt 3000m Light Snow 1.00mm precipitation Vertical Visibility of 0ft. 1015 No Significant change. Runway 23: Wet or puddles, 51-100% contamination with 1mm, friction coefficient 0.50. UNEE 261230Z 26003MPS 3000 -SN OVC002 00/M00 Q1015 R23/290150 NOSIG RMK QBB060 QFE738

LIFR

0°C / 0°C

[Mehr]
Wind 280º 6kt
Sichtweite 260m
Wetter Fog
Wolken Vertical Visibility of 0ft.
Druck 1021
Änderung No Significant change. Runway 23: Wet or puddles, 51-100% contamination with 1mm, friction coefficient 0.50.
Roh UNEE 270000Z 28003MPS 0250 0150SW FG OVC003 00/M00 Q1021 R23/290150 NOSIG RMK QFE742

LIFR

0°C / 0°C

[Mehr]
Wind 300º 4kt
Sichtweite >10km
Wetter -
Wolken Broken Clouds 200ft
Druck 1020
Änderung No Significant change. Runway 23: Wet or puddles, 51-100% contamination with 1mm, friction coefficient 0.50.
Roh UNEE 262330Z 30002MPS 9999 BKN002 OVC023 00/M00 Q1020 R23/290150 NOSIG RMK QBB060 QFE742

IFR

0°C / 0°C

[Mehr]
Wind 290º 4kt
Sichtweite >10km
Wetter -
Wolken Broken Clouds 900ft
Druck 1020
Änderung No Significant change. Runway 23: Wet or puddles, 51-100% contamination with 1mm, friction coefficient 0.50.
Roh UNEE 262300Z 29002MPS 9999 BKN009 OVC020 00/M00 Q1020 R23/290150 NOSIG RMK QFE742

MVFR

0°C / 0°C

[Mehr]
Wind 320º 2kt
Sichtweite >10km
Wetter -
Wolken Broken Clouds 1300ft
Druck 1020
Änderung No Significant change. Runway 23: Wet or puddles, 51-100% contamination with 1mm, friction coefficient 0.50.
Roh UNEE 262230Z 32001MPS 9999 BKN013 OVC025 00/M00 Q1020 R23/290150 NOSIG RMK QFE742

IFR

0°C / 0°C

[Mehr]
Wind 350º 4kt
Sichtweite >10km
Wetter -
Wolken Overcast 700ft
Druck 1019
Änderung No Significant change. Runway 23: Wet or puddles, 51-100% contamination with 1mm, friction coefficient 0.50.
Roh UNEE 262200Z 35002MPS 9999 OVC007 00/M00 Q1019 R23/290150 NOSIG RMK QFE741

IFR

0°C / 0°C

[Mehr]
Wind 350º 4kt
Sichtweite >10km
Wetter -
Wolken Overcast 600ft
Druck 1019
Änderung No Significant change. Runway 23: Wet or puddles, 51-100% contamination with 1mm, friction coefficient 0.50.
Roh UNEE 262130Z 35002MPS 9999 OVC006 00/M00 Q1019 R23/290150 NOSIG RMK QFE741

IFR

0°C / 0°C

[Mehr]
Wind 330º 4kt
Sichtweite >10km
Wetter -
Wolken Overcast 700ft
Druck 1018
Änderung No Significant change. Runway 23: Wet or puddles, 51-100% contamination with 1mm, friction coefficient 0.50.
Roh UNEE 262100Z 33002MPS 9999 OVC007 00/M00 Q1018 R23/290150 NOSIG RMK QFE741

IFR

0°C / 0°C

[Mehr]
Wind 20º 4kt
Sichtweite >10km
Wetter -
Wolken Overcast 500ft
Druck 1018
Änderung No Significant change. Runway 23: Wet or puddles, 51-100% contamination with 1mm, friction coefficient 0.50.
Roh UNEE 262030Z 02002MPS 9999 OVC005 00/M00 Q1018 R23/290150 NOSIG RMK QFE741

LIFR

0°C / 0°C

[Mehr]
Wind 70º 4kt
Sichtweite >10km
Wetter -
Wolken Overcast 400ft
Druck 1018
Änderung No Significant change. Runway 23: Wet or puddles, 51-100% contamination with 1mm, friction coefficient 0.50.
Roh UNEE 262000Z 07002MPS 9999 OVC004 M00/M00 Q1018 R23/290150 NOSIG RMK QFE740

LIFR

0°C / 0°C

[Mehr]
Wind 60º variable 030º to 100º 4kt
Sichtweite >10km
Wetter -
Wolken Overcast 300ft
Druck 1018
Änderung No Significant change. Runway 23: Wet or puddles, 51-100% contamination with 1mm, friction coefficient 0.50.
Roh UNEE 261930Z 06002MPS 030V100 9999 OVC003 00/M00 Q1018 R23/290150 NOSIG RMK QFE740

LIFR

0°C / 0°C

[Mehr]
Wind 60º 4kt
Sichtweite 1900m. Runway 23: Visual range is 2000m and decreasing.
Wetter Fog
Wolken Vertical Visibility of 0ft.
Druck 1017
Änderung No Significant change. Runway 23: Wet or puddles, 51-100% contamination with 1mm, friction coefficient 0.50.
Roh UNEE 261900Z 06002MPS 1900 0250SE R23/P2000D FG OVC004 00/M00 Q1017 R23/290150 NOSIG RMK QFE740

LIFR

0°C / 0°C

[Mehr]
Wind 50º 4kt
Sichtweite 140m. Runway 23: Visual range is 450m.
Wetter freezing Fog
Wolken Vertical Visibility of 0ft.
Druck 1017
Änderung No Significant change. Runway 23: Wet or puddles, 51-100% contamination with 1mm, friction coefficient 0.50.
Roh UNEE 261830Z 05002MPS 0150 0100NE R23/0450N FZFG VV001 M00/M00 Q1017 R23/290150 NOSIG RMK QBB040 QFE740

LIFR

0°C / 0°C

[Mehr]
Wind 60º 4kt
Sichtweite 140m. Runway 23: Visual range is 400m.
Wetter freezing Fog
Wolken Vertical Visibility of 0ft.
Druck 1017
Änderung No Significant change. Runway 23: Wet or puddles, 51-100% contamination with 1mm, friction coefficient 0.50.
Roh UNEE 261800Z 06002MPS 0150 0100NE R23/0400N FZFG OVC001 M00/M00 Q1017 R23/290150 NOSIG RMK QBB030 QFE740

LIFR

0°C / 0°C

[Mehr]
Wind 40º 4kt
Sichtweite 140m. Runway 23: Visual range is 550m.
Wetter Light Snow Fog 1.00mm precipitation
Wolken Vertical Visibility of 0ft.
Druck 1017
Änderung No Significant change. Runway 23: Wet or puddles, 51-100% contamination with 1mm, friction coefficient 0.50.
Roh UNEE 261730Z 04002MPS 0150 R23/0550N -SN FG OVC001 00/M00 Q1017 R23/290150 NOSIG RMK QBB040 QFE740

LIFR

0°C / 0°C

[Mehr]
Wind 50º 2kt
Sichtweite 260m. Runway 23: Visual range is 500m.
Wetter Fog
Wolken Vertical Visibility of 0ft.
Druck 1017
Änderung No Significant change. Runway 23: Wet or puddles, 51-100% contamination with 1mm, friction coefficient 0.50.
Roh UNEE 261700Z 05001MPS 0250 0150NE R23/0500N FG VV001 00/00 Q1017 R23/290150 NOSIG RMK QBB040 QFE739

LIFR

0°C / 0°C

[Mehr]
Wind 340º 4kt
Sichtweite 310m. Runway 23: Visual range is 750m.
Wetter Fog
Wolken Vertical Visibility of 0ft.
Druck 1016
Änderung No Significant change. Runway 23: Wet or puddles, 51-100% contamination with 1mm, friction coefficient 0.50.
Roh UNEE 261630Z 34002MPS 0300 0250NE R23/0750N FG VV001 00/00 Q1016 R23/290150 NOSIG RMK QBB050 QFE739

LIFR

0°C / 0°C

[Mehr]
Wind 310º 4kt
Sichtweite 260m. Runway 23: Visual range is 1200m and decreasing.
Wetter Fog
Wolken Vertical Visibility of 0ft.
Druck 1016
Änderung No Significant change. Runway 23: Wet or puddles, 51-100% contamination with 1mm, friction coefficient 0.50.
Roh UNEE 261600Z 31002MPS 0250 0150SW R23/1200D FG VV002 00/00 Q1016 R23/290150 NOSIG RMK QBB060 QFE739

LIFR

0°C / 0°C

[Mehr]
Wind 270º 4kt
Sichtweite 190m. Runway 23: Visual range is 650m.
Wetter Fog
Wolken Vertical Visibility of 0ft.
Druck 1016
Änderung No Significant change. Runway 23: Wet or puddles, 51-100% contamination with 1mm, friction coefficient 0.50.
Roh UNEE 261530Z 27002MPS 0200 R23/0650N FG VV001 00/00 Q1016 R23/290150 NOSIG RMK QBB050 QFE739

LIFR

0°C / 0°C

[Mehr]
Wind 250º 4kt
Sichtweite 140m. Runway 23: Visual range is 500m.
Wetter Fog
Wolken Vertical Visibility of 0ft.
Druck 1016
Änderung No Significant change. Runway 23: Wet or puddles, 51-100% contamination with 1mm, friction coefficient 0.50.
Roh UNEE 261500Z 25002MPS 0150 0100SE R23/0500N FG VV001 00/00 Q1016 R23/290150 NOSIG RMK QBB050 QFE739

LIFR

0°C / 0°C

[Mehr]
Wind 260º 4kt
Sichtweite 100m. Runway 23: Visual range is 450m.
Wetter Fog
Wolken Vertical Visibility of 0ft.
Druck 1016
Änderung No Significant change. Runway 23: Wet or puddles, 51-100% contamination with 1mm, friction coefficient 0.50.
Roh UNEE 261430Z 26002MPS 0100 R23/0450N FG VV001 00/00 Q1016 R23/290150 NOSIG RMK QBB040 QFE739

LIFR

0°C / 0°C

[Mehr]
Wind 260º 6kt
Sichtweite 140m. Runway 23: Visual range is 600m.
Wetter Fog
Wolken Vertical Visibility of 0ft.
Druck 1015
Änderung No Significant change. Runway 23: Wet or puddles, 51-100% contamination with 1mm, friction coefficient 0.50.
Roh UNEE 261400Z 26003MPS 0150 R23/0600N FG VV001 00/00 Q1015 R23/290150 NOSIG RMK QBB050 QFE739

LIFR

0°C / 0°C

[Mehr]
Wind 260º 6kt
Sichtweite 260m. Runway 23: Visual range is 1000m and decreasing.
Wetter Fog
Wolken Vertical Visibility of 0ft.
Druck 1015
Änderung No Significant change. Runway 23: Wet or puddles, 51-100% contamination with 1mm, friction coefficient 0.50.
Roh UNEE 261330Z 26003MPS 0250 R23/1000D FG OVC001 00/00 Q1015 R23/290150 NOSIG RMK QBB050 QFE739

LIFR

0°C / 0°C

[Mehr]
Wind 250º 6kt
Sichtweite 1700m
Wetter Snow 3.00mm precipitation
Wolken Vertical Visibility of 0ft.
Druck 1015
Änderung No Significant change. Runway 23: Wet or puddles, 51-100% contamination with 1mm, friction coefficient 0.50.
Roh UNEE 261300Z 25003MPS 1700 1000SE SN OVC001 00/M00 Q1015 R23/290150 NOSIG RMK QBB050 QFE738

LIFR

0°C / 0°C

[Mehr]
Wind 260º 6kt
Sichtweite 3000m
Wetter Light Snow 1.00mm precipitation
Wolken Vertical Visibility of 0ft.
Druck 1015
Änderung No Significant change. Runway 23: Wet or puddles, 51-100% contamination with 1mm, friction coefficient 0.50.
Roh UNEE 261230Z 26003MPS 3000 -SN OVC002 00/M00 Q1015 R23/290150 NOSIG RMK QBB060 QFE738

TAF für 55.27°N 86.11°O (UNEE)

From till


From till Wind 340º 6kt. Visibility 8000m. Light Showers Snow Light Showers Rain . Broken Clouds 500ft. Broken Clouds 1600ft.
Temporarly from till Visibility 144.841m. Light Showers Snow Fog . Broken Clouds 100ft. Broken Clouds 1600ft.
Temporarly from till Scattered Clouds 500ft. Broken Clouds 1600ft.
From till Wind 360º 6kt. Gust 16kt. Visibility 10km or more. Light Showers Rain . Broken Clouds 1600ft.

Roh: TAF UNEE 262300Z 2700/2724 34003MPS 8000 -SHSNRA BKN005 BKN016CB TEMPO 2700/2703 0150 -SHSN FG BKN001 BKN016CB FM270300 36003G08MPS 9999 -SHRA BKN016CB TEMPO 2703/2715 SCT005 BKN016CB

Aktuelle Satelliten- und Regenbilder für 55.27°N 86.11°O

Die Standortmarkierung ist platziert auf 55.27°N 86.11°O. [Mehr]

Das Echtzeit-Satellitenbild kombiniert sichtbares Licht während des Tages mit Infrarotstrahlung während der Nacht. Nachts ist das Bild nicht dunkel, da Infrarotstrahlung Temperaturunterschiede erkennen kann. Leider sind niedrige Wolken und Nebel nur schwer von den Bodentemperaturen zu unterscheiden und können daher nachts fast unsichtbar sein. Meteosat-Satellitenbilder für Europa werden alle 5 Minuten in Echtzeit aktualisiert. Die Bilder GOES-16 / GOES-17 (Nord- und Südamerika) und Himawari (Asien) werden alle 10 Minuten aktualisiert.

Copyright 2021 EUMETSAT / meteoblue. / Copyright 2021 meteoblue

Radar- und Niederschlags-Nowcast für 55.27°N 86.11°O

Nieselregen
Leicht
Moderat
Stark
Sehr stark
Hagel

Die Ortsmarkierung zeigt auf 55.27°N 86.11°O. Diese Animation zeigt das Niederschlagsradar der letzten Stunde, sowie eine 1h Vorhersage. Nieselregen und leichter Schneefall können für das Radar unsichtbar sein. Die Niederschlagsintensität ist farbcodiert von Hellblau bis Orange.